Fayetteville, Pope Air Force Base (KPOB)

NamePope Air Force Base
CityFayetteville
CountryUnited States
ICAOKPOB
IATA
Altitude66 m
CoordinatesGoogle Map
Live Air TrafficLiveATC.net
METARKPOB 111856Z AUTO 32006KT 10SM CLR 10/M06 A3013 RMK AO2 SLP207 T00971058 $
2018-12-11 18:56:00 Wind: Northwest (320°) 3.09 m/s - Visibility: 16093.4 m - Temperature: 10 °C - Dew point: -6 °C - Humidity: 32.2% - Pressure: 1020.32 hPa
Statistics

The table below shows the detailed information of all flights to/from Fayetteville, Pope Air Force Base (KPOB).

Ident Aircraft Coming fromFrom Going toTo Owner nameOwnerRouteRouteDate
N445MC - B744 - Atlas Air GTI8359 BOEING 747-400 (international, winglets) B744 Nuernberg, Germany (EDDN) EDDN
9597 km
Fayetteville, United States (KPOB) KPOB
2884 km
Atlas Air Atlas Air Hahn, Germany (EDFH) EDFH
, United States (KPSM) KPSM
Sun, 25 Nov 2018 22:12:32 +0000 25/11/2018 10:12 pm
N445MC - B744 - Atlas Air GTI8359 BOEING 747-400 (international, winglets) B744 Nuernberg, Germany (EDDN) EDDN
8780 km
Fayetteville, United States (KPOB) KPOB
1953 km
Atlas Air Atlas Air Hahn, Germany (EDFH) EDFH
, United States (KPSM) KPSM
Sun, 25 Nov 2018 21:00:04 +0000 25/11/2018 9:00 pm
N412MC - B744 - Atlas Air GTI2918 BOEING 747-400 (international, winglets) B744 Fayetteville, United States (KPOB) KPOB
3303 km
, United States (KPSM) KPSM
3410 km
Atlas Air Atlas Air - - Wed, 21 Nov 2018 22:43:19 +0000 21/11/2018 10:43 pm